sensor_id;sensor_type;location;lat;lon;timestamp;pressure;altitude;pressure_sealevel;temperature;humidity
70521;BME280;58442;52.716;23.560;2023-06-26T00:01:18;101326.29;;;15.42;63.16
70521;BME280;58442;52.716;23.560;2023-06-26T00:03:29;101320.76;;;15.39;63.18
70521;BME280;58442;52.716;23.560;2023-06-26T00:05:30;101322.63;;;15.35;63.25
70521;BME280;58442;52.716;23.560;2023-06-26T00:07:31;101330.02;;;15.30;63.43
70521;BME280;58442;52.716;23.560;2023-06-26T00:09:35;101317.03;;;15.27;63.39
70521;BME280;58442;52.716;23.560;2023-06-26T00:11:43;101321.65;;;15.23;63.48
70521;BME280;58442;52.716;23.560;2023-06-26T00:13:45;101308.70;;;15.20;63.59
70521;BME280;58442;52.716;23.560;2023-06-26T00:15:46;101319.23;;;15.18;63.63
70521;BME280;58442;52.716;23.560;2023-06-26T00:17:47;101314.47;;;15.15;63.65
70521;BME280;58442;52.716;23.560;2023-06-26T00:19:58;101312.47;;;15.12;63.73
70521;BME280;58442;52.716;23.560;2023-06-26T00:21:59;101312.39;;;15.09;63.82
70521;BME280;58442;52.716;23.560;2023-06-26T00:24:01;101317.45;;;15.07;63.83
70521;BME280;58442;52.716;23.560;2023-06-26T00:26:04;101318.19;;;15.03;63.83
70521;BME280;58442;52.716;23.560;2023-06-26T00:28:13;101322.43;;;15.01;63.86
70521;BME280;58442;52.716;23.560;2023-06-26T00:30:14;101318.84;;;14.97;63.92
70521;BME280;58442;52.716;23.560;2023-06-26T00:32:16;101318.77;;;14.93;63.99
70521;BME280;58442;52.716;23.560;2023-06-26T00:34:17;101325.77;;;14.91;63.98
70521;BME280;58442;52.716;23.560;2023-06-26T00:36:28;101320.59;;;14.86;64.07
70521;BME280;58442;52.716;23.560;2023-06-26T00:38:29;101323.68;;;14.84;64.17
70521;BME280;58442;52.716;23.560;2023-06-26T00:40:30;101323.60;;;14.81;64.22
70521;BME280;58442;52.716;23.560;2023-06-26T00:42:32;101320.02;;;14.76;64.25
70521;BME280;58442;52.716;23.560;2023-06-26T00:44:43;101317.57;;;14.71;64.33
70521;BME280;58442;52.716;23.560;2023-06-26T00:46:45;101318.27;;;14.68;64.47
70521;BME280;58442;52.716;23.560;2023-06-26T00:48:48;101318.64;;;14.67;64.45
70521;BME280;58442;52.716;23.560;2023-06-26T00:50:49;101311.95;;;14.64;64.55
70521;BME280;58442;52.716;23.560;2023-06-26T00:52:57;101308.01;;;14.62;64.57
70521;BME280;58442;52.716;23.560;2023-06-26T00:55:02;101309.50;;;14.59;64.67
70521;BME280;58442;52.716;23.560;2023-06-26T00:57:04;101306.34;;;14.57;64.68
70521;BME280;58442;52.716;23.560;2023-06-26T00:59:06;101308.66;;;14.55;64.72
70521;BME280;58442;52.716;23.560;2023-06-26T01:01:13;101308.56;;;14.52;64.80
70521;BME280;58442;52.716;23.560;2023-06-26T01:03:19;101303.47;;;14.50;64.91
70521;BME280;58442;52.716;23.560;2023-06-26T01:05:21;101307.36;;;14.49;64.94
70521;BME280;58442;52.716;23.560;2023-06-26T01:07:23;101309.30;;;14.48;64.93
70521;BME280;58442;52.716;23.560;2023-06-26T01:09:27;101300.64;;;14.46;64.91
70521;BME280;58442;52.716;23.560;2023-06-26T01:11:30;101299.04;;;14.45;64.91
70521;BME280;58442;52.716;23.560;2023-06-26T01:13:31;101302.13;;;14.44;64.89
70521;BME280;58442;52.716;23.560;2023-06-26T01:15:34;101294.63;;;14.41;64.86
70521;BME280;58442;52.716;23.560;2023-06-26T01:17:42;101299.68;;;14.39;64.87
70521;BME280;58442;52.716;23.560;2023-06-26T01:19:48;101292.63;;;14.38;64.89
70521;BME280;58442;52.716;23.560;2023-06-26T01:21:58;101299.63;;;14.35;64.92
70521;BME280;58442;52.716;23.560;2023-06-26T01:24:12;101296.44;;;14.33;64.93
70521;BME280;58442;52.716;23.560;2023-06-26T01:26:22;101301.48;;;14.31;64.94
70521;BME280;58442;52.716;23.560;2023-06-26T01:28:24;101307.31;;;14.30;64.94
70521;BME280;58442;52.716;23.560;2023-06-26T01:30:28;101299.80;;;14.27;65.00
70521;BME280;58442;52.716;23.560;2023-06-26T01:32:30;101302.12;;;14.24;65.02
70521;BME280;58442;52.716;23.560;2023-06-26T01:34:32;101302.48;;;14.23;64.97
70521;BME280;58442;52.716;23.560;2023-06-26T01:36:33;101299.32;;;14.21;64.97
70521;BME280;58442;52.716;23.560;2023-06-26T01:38:35;101295.34;;;14.18;65.06
70521;BME280;58442;52.716;23.560;2023-06-26T01:40:36;101301.96;;;14.17;65.06
70521;BME280;58442;52.716;23.560;2023-06-26T01:42:38;101298.45;;;14.17;65.07
70521;BME280;58442;52.716;23.560;2023-06-26T01:44:48;101300.76;;;14.15;65.13
70521;BME280;58442;52.716;23.560;2023-06-26T01:47:00;101301.09;;;14.13;65.21
70521;BME280;58442;52.716;23.560;2023-06-26T01:49:12;101296.77;;;14.12;65.22
70521;BME280;58442;52.716;23.560;2023-06-26T01:51:17;101296.34;;;14.10;65.24
70521;BME280;58442;52.716;23.560;2023-06-26T01:53:23;101295.91;;;14.08;65.26
70521;BME280;58442;52.716;23.560;2023-06-26T01:57:52;101295.83;;;14.05;65.34
70521;BME280;58442;52.716;23.560;2023-06-26T01:59:56;101293.45;;;14.03;65.49
70521;BME280;58442;52.716;23.560;2023-06-26T02:01:57;101297.70;;;14.01;65.54
70521;BME280;58442;52.716;23.560;2023-06-26T02:03:59;101296.91;;;14.00;65.64
70521;BME280;58442;52.716;23.560;2023-06-26T02:06:04;101295.30;;;13.99;65.72
70521;BME280;58442;52.716;23.560;2023-06-26T02:08:06;101292.58;;;13.99;65.83
70521;BME280;58442;52.716;23.560;2023-06-26T02:10:07;101299.98;;;13.99;65.82
70521;BME280;58442;52.716;23.560;2023-06-26T02:12:09;101300.77;;;13.99;65.80
70521;BME280;58442;52.716;23.560;2023-06-26T02:14:19;101302.72;;;13.99;65.78
70521;BME280;58442;52.716;23.560;2023-06-26T02:16:20;101300.34;;;13.97;65.81
70521;BME280;58442;52.716;23.560;2023-06-26T02:18:21;101300.71;;;13.95;65.86
70521;BME280;58442;52.716;23.560;2023-06-26T02:20:24;101297.18;;;13.95;65.91
70521;BME280;58442;52.716;23.560;2023-06-26T02:22:33;101301.08;;;13.94;65.96
70521;BME280;58442;52.716;23.560;2023-06-26T02:24:35;101297.18;;;13.95;66.10
70521;BME280;58442;52.716;23.560;2023-06-26T02:26:36;101302.19;;;13.93;66.17
70521;BME280;58442;52.716;23.560;2023-06-26T02:28:37;101301.08;;;13.94;66.18
70521;BME280;58442;52.716;23.560;2023-06-26T02:30:48;101301.86;;;13.94;66.19
70521;BME280;58442;52.716;23.560;2023-06-26T02:32:50;101296.72;;;13.93;66.27
70521;BME280;58442;52.716;23.560;2023-06-26T02:34:51;101299.45;;;13.93;66.32
70521;BME280;58442;52.716;23.560;2023-06-26T02:36:52;101295.15;;;13.92;66.30
70521;BME280;58442;52.716;23.560;2023-06-26T02:39:03;101297.88;;;13.92;66.29
70521;BME280;58442;52.716;23.560;2023-06-26T02:41:05;101292.42;;;13.92;66.30
70521;BME280;58442;52.716;23.560;2023-06-26T02:43:06;101298.67;;;13.92;66.31
70521;BME280;58442;52.716;23.560;2023-06-26T02:45:09;101298.67;;;13.92;66.29
70521;BME280;58442;52.716;23.560;2023-06-26T02:47:18;101299.45;;;13.93;66.31
70521;BME280;58442;52.716;23.560;2023-06-26T02:49:19;101300.98;;;13.90;66.37
70521;BME280;58442;52.716;23.560;2023-06-26T02:51:21;101296.30;;;13.91;66.38
70521;BME280;58442;52.716;23.560;2023-06-26T02:53:22;101296.30;;;13.91;66.37
70521;BME280;58442;52.716;23.560;2023-06-26T02:55:34;101299.03;;;13.91;66.26
70521;BME280;58442;52.716;23.560;2023-06-26T02:57:35;101301.77;;;13.91;66.43
70521;BME280;58442;52.716;23.560;2023-06-26T02:59:37;101295.52;;;13.90;66.45
70521;BME280;58442;52.716;23.560;2023-06-26T03:01:40;101297.09;;;13.91;66.45
70521;BME280;58442;52.716;23.560;2023-06-26T03:03:48;101299.39;;;13.89;66.49
70521;BME280;58442;52.716;23.560;2023-06-26T03:05:49;101299.39;;;13.89;66.59
70521;BME280;58442;52.716;23.560;2023-06-26T03:07:50;101295.52;;;13.90;66.71
70521;BME280;58442;52.716;23.560;2023-06-26T03:09:52;101309.96;;;13.91;66.65
70521;BME280;58442;52.716;23.560;2023-06-26T03:12:03;101297.88;;;13.92;66.66
70521;BME280;58442;52.716;23.560;2023-06-26T03:14:04;101304.59;;;13.94;66.70
70521;BME280;58442;52.716;23.560;2023-06-26T03:16:05;101308.91;;;13.95;66.72
70521;BME280;58442;52.716;23.560;2023-06-26T03:18:07;101306.17;;;13.95;66.75
70521;BME280;58442;52.716;23.560;2023-06-26T03:20:17;101305.80;;;13.97;66.81
70521;BME280;58442;52.716;23.560;2023-06-26T03:22:18;101307.76;;;13.96;66.91
70521;BME280;58442;52.716;23.560;2023-06-26T03:24:20;101316.74;;;13.97;66.98
70521;BME280;58442;52.716;23.560;2023-06-26T03:26:21;101315.95;;;13.96;67.03
70521;BME280;58442;52.716;23.560;2023-06-26T03:28:32;101311.64;;;13.95;67.11
70521;BME280;58442;52.716;23.560;2023-06-26T03:30:33;101314.37;;;13.95;67.27
70521;BME280;58442;52.716;23.560;2023-06-26T03:32:34;101314.37;;;13.95;67.38
70521;BME280;58442;52.716;23.560;2023-06-26T03:34:36;101308.91;;;13.95;67.45
70521;BME280;58442;52.716;23.560;2023-06-26T03:36:47;101306.17;;;13.95;67.58
70521;BME280;58442;52.716;23.560;2023-06-26T03:38:48;101306.60;;;13.98;67.70
70521;BME280;58442;52.716;23.560;2023-06-26T03:40:49;101305.12;;;14.00;67.72
70521;BME280;58442;52.716;23.560;2023-06-26T03:42:51;101302.80;;;14.02;67.71
70521;BME280;58442;52.716;23.560;2023-06-26T03:45:02;101306.76;;;14.05;67.76
70521;BME280;58442;52.716;23.560;2023-06-26T03:47:03;101307.19;;;14.07;67.89
70521;BME280;58442;52.716;23.560;2023-06-26T03:49:05;101301.39;;;14.08;67.97
70521;BME280;58442;52.716;23.560;2023-06-26T03:51:07;101304.55;;;14.10;68.02
70521;BME280;58442;52.716;23.560;2023-06-26T03:53:16;101294.04;;;14.12;68.11
70521;BME280;58442;52.716;23.560;2023-06-26T03:55:18;101298.34;;;14.13;68.31
70521;BME280;58442;52.716;23.560;2023-06-26T03:57:19;101291.39;;;14.16;68.43
70521;BME280;58442;52.716;23.560;2023-06-26T03:59:21;101299.66;;;14.19;68.49
70521;BME280;58442;52.716;23.560;2023-06-26T04:01:31;101307.52;;;14.21;68.59
70521;BME280;58442;52.716;23.560;2023-06-26T04:03:33;101300.53;;;14.23;68.72
70521;BME280;58442;52.716;23.560;2023-06-26T04:05:35;101300.96;;;14.26;68.80
70521;BME280;58442;52.716;23.560;2023-06-26T04:07:38;101310.41;;;14.28;68.83
70521;BME280;58442;52.716;23.560;2023-06-26T04:09:46;101306.16;;;14.31;68.92
70521;BME280;58442;52.716;23.560;2023-06-26T04:11:47;101299.53;;;14.32;69.08
70521;BME280;58442;52.716;23.560;2023-06-26T04:13:49;101306.58;;;14.33;69.17
70521;BME280;58442;52.716;23.560;2023-06-26T04:15:50;101302.70;;;14.34;69.24
70521;BME280;58442;52.716;23.560;2023-06-26T04:18:01;101301.56;;;14.35;69.34
70521;BME280;58442;52.716;23.560;2023-06-26T04:20:02;101305.94;;;14.39;69.45
70521;BME280;58442;52.716;23.560;2023-06-26T04:22:07;101302.13;;;14.44;69.49
70521;BME280;58442;52.716;23.560;2023-06-26T04:24:08;101308.52;;;14.48;69.51
70521;BME280;58442;52.716;23.560;2023-06-26T04:26:16;101306.27;;;14.54;69.52
70521;BME280;58442;52.716;23.560;2023-06-26T04:28:17;101307.93;;;14.58;69.62
70521;BME280;58442;52.716;23.560;2023-06-26T04:30:19;101311.95;;;14.64;69.69
70521;BME280;58442;52.716;23.560;2023-06-26T04:32:20;101298.42;;;14.71;69.74
70521;BME280;58442;52.716;23.560;2023-06-26T04:34:30;101304.39;;;14.77;69.86
70521;BME280;58442;52.716;23.560;2023-06-26T04:36:52;101301.42;;;14.86;70.00
70521;BME280;58442;52.716;23.560;2023-06-26T04:38:54;101304.70;;;14.95;70.14
70521;BME280;58442;52.716;23.560;2023-06-26T04:40:56;101305.30;;;15.04;70.14
70521;BME280;58442;52.716;23.560;2023-06-26T04:42:57;101298.41;;;15.14;70.12
70521;BME280;58442;52.716;23.560;2023-06-26T04:45:07;101303.22;;;15.20;70.14
70521;BME280;58442;52.716;23.560;2023-06-26T04:47:09;101297.87;;;15.27;70.25
70521;BME280;58442;52.716;23.560;2023-06-26T04:49:10;101306.20;;;15.35;70.26
70521;BME280;58442;52.716;23.560;2023-06-26T04:51:12;101303.99;;;15.44;70.14
70521;BME280;58442;52.716;23.560;2023-06-26T04:53:22;101301.82;;;15.53;70.11
70521;BME280;58442;52.716;23.560;2023-06-26T04:55:24;101296.89;;;15.62;70.15
70521;BME280;58442;52.716;23.560;2023-06-26T04:57:25;101303.73;;;15.72;70.12
70521;BME280;58442;52.716;23.560;2023-06-26T04:59:27;101304.65;;;15.83;70.02
70521;BME280;58442;52.716;23.560;2023-06-26T05:01:36;101294.64;;;15.94;69.93
70521;BME280;58442;52.716;23.560;2023-06-26T05:03:40;101299.84;;;16.03;69.96
70521;BME280;58442;52.716;23.560;2023-06-26T05:05:41;101294.46;;;16.10;69.96
70521;BME280;58442;52.716;23.560;2023-06-26T05:07:42;101297.30;;;16.17;69.93
70521;BME280;58442;52.716;23.560;2023-06-26T05:09:51;101295.06;;;16.26;69.91
70521;BME280;58442;52.716;23.560;2023-06-26T05:11:52;101299.50;;;16.34;69.93
70521;BME280;58442;52.716;23.560;2023-06-26T05:13:54;101300.41;;;16.46;69.86
70521;BME280;58442;52.716;23.560;2023-06-26T05:15:55;101295.09;;;16.60;69.69
70521;BME280;58442;52.716;23.560;2023-06-26T05:18:06;101291.00;;;16.77;69.54
70521;BME280;58442;52.716;23.560;2023-06-26T05:20:08;101299.80;;;16.93;69.39
70521;BME280;58442;52.716;23.560;2023-06-26T05:22:10;101297.98;;;17.08;69.19
70521;BME280;58442;52.716;23.560;2023-06-26T05:24:14;101298.48;;;17.17;69.09
70521;BME280;58442;52.716;23.560;2023-06-26T05:26:21;101303.27;;;17.27;68.98
70521;BME280;58442;52.716;23.560;2023-06-26T05:28:23;101296.66;;;17.35;69.00
70521;BME280;58442;52.716;23.560;2023-06-26T05:30:27;101295.14;;;17.41;68.93
70521;BME280;58442;52.716;23.560;2023-06-26T05:32:29;101303.44;;;17.48;68.88
70521;BME280;58442;52.716;23.560;2023-06-26T05:34:36;101298.77;;;17.53;68.96
70521;BME280;58442;52.716;23.560;2023-06-26T05:36:38;101300.41;;;17.61;68.80
70521;BME280;58442;52.716;23.560;2023-06-26T05:38:42;101307.52;;;17.69;68.72
70521;BME280;58442;52.716;23.560;2023-06-26T05:40:44;101302.93;;;17.80;68.61
70521;BME280;58442;52.716;23.560;2023-06-26T05:42:50;101291.20;;;17.90;68.49
70521;BME280;58442;52.716;23.560;2023-06-26T05:44:52;101293.64;;;18.02;68.39
70521;BME280;58442;52.716;23.560;2023-06-26T05:46:53;101285.88;;;18.19;68.22
70521;BME280;58442;52.716;23.560;2023-06-26T05:48:54;101300.09;;;18.35;68.02
70521;BME280;58442;52.716;23.560;2023-06-26T05:51:05;101296.22;;;18.47;67.88
70521;BME280;58442;52.716;23.560;2023-06-26T05:53:07;101289.55;;;18.58;67.81
70521;BME280;58442;52.716;23.560;2023-06-26T05:55:09;101293.96;;;18.70;67.69
70521;BME280;58442;52.716;23.560;2023-06-26T05:57:12;101292.03;;;18.81;67.56
70521;BME280;58442;52.716;23.560;2023-06-26T05:59:20;101292.43;;;18.91;67.49
70521;BME280;58442;52.716;23.560;2023-06-26T06:01:22;101296.77;;;18.99;67.43
70521;BME280;58442;52.716;23.560;2023-06-26T06:03:25;101301.10;;;19.07;67.39
70521;BME280;58442;52.716;23.560;2023-06-26T06:05:26;101291.30;;;19.17;67.27
70521;BME280;58442;52.716;23.560;2023-06-26T06:07:35;101289.32;;;19.28;67.12
70521;BME280;58442;52.716;23.560;2023-06-26T06:09:37;101292.48;;;19.40;66.93
70521;BME280;58442;52.716;23.560;2023-06-26T06:11:38;101287.35;;;19.53;66.59
70521;BME280;58442;52.716;23.560;2023-06-26T06:13:39;101287.77;;;19.66;66.31
70521;BME280;58442;52.716;23.560;2023-06-26T06:15:49;101288.15;;;19.79;66.03
70521;BME280;58442;52.716;23.560;2023-06-26T06:17:50;101285.36;;;19.93;65.76
70521;BME280;58442;52.716;23.560;2023-06-26T06:19:52;101283.34;;;20.08;65.41
70521;BME280;58442;52.716;23.560;2023-06-26T06:21:53;101282.51;;;20.21;65.09
70521;BME280;58442;52.716;23.560;2023-06-26T06:24:04;101274.58;;;20.34;64.69
70521;BME280;58442;52.716;23.560;2023-06-26T06:26:07;101281.26;;;20.40;64.58
70521;BME280;58442;52.716;23.560;2023-06-26T06:28:08;101278.49;;;20.47;64.38
70521;BME280;58442;52.716;23.560;2023-06-26T06:30:11;101278.80;;;20.64;63.79
70521;BME280;58442;52.716;23.560;2023-06-26T06:32:18;101288.56;;;20.83;63.40
70521;BME280;58442;52.716;23.560;2023-06-26T06:34:20;101288.15;;;20.88;63.33
70521;BME280;58442;52.716;23.560;2023-06-26T06:36:21;101282.58;;;20.95;62.97
70521;BME280;58442;52.716;23.560;2023-06-26T06:38:22;101277.72;;;21.10;62.65
70521;BME280;58442;52.716;23.560;2023-06-26T06:40:33;101278.73;;;21.34;62.20
70521;BME280;58442;52.716;23.560;2023-06-26T06:42:34;101279.75;;;21.54;61.77
70521;BME280;58442;52.716;23.560;2023-06-26T06:44:36;101286.69;;;21.73;61.32
70521;BME280;58442;52.716;23.560;2023-06-26T06:46:38;101273.45;;;21.91;61.01
70521;BME280;58442;52.716;23.560;2023-06-26T06:48:48;101279.20;;;22.07;60.64
70521;BME280;58442;52.716;23.560;2023-06-26T06:50:50;101280.77;;;22.12;60.33
70521;BME280;58442;52.716;23.560;2023-06-26T06:52:51;101278.00;;;22.12;60.12
70521;BME280;58442;52.716;23.560;2023-06-26T06:54:54;101269.70;;;22.12;59.92
70521;BME280;58442;52.716;23.560;2023-06-26T06:57:02;101272.38;;;22.19;59.65
70521;BME280;58442;52.716;23.560;2023-06-26T06:59:04;101280.93;;;22.32;59.18
70521;BME280;58442;52.716;23.560;2023-06-26T07:01:05;101276.51;;;22.38;58.70
70521;BME280;58442;52.716;23.560;2023-06-26T07:03:06;101275.57;;;22.48;58.43
70521;BME280;58442;52.716;23.560;2023-06-26T07:05:17;101271.30;;;22.71;57.80
70521;BME280;58442;52.716;23.560;2023-06-26T07:07:19;101264.76;;;22.88;57.43
70521;BME280;58442;52.716;23.560;2023-06-26T07:09:20;101273.60;;;22.76;57.68
70521;BME280;58442;52.716;23.560;2023-06-26T07:11:21;101270.73;;;22.86;57.36
70521;BME280;58442;52.716;23.560;2023-06-26T07:13:32;101269.20;;;22.78;57.36
70521;BME280;58442;52.716;23.560;2023-06-26T07:15:33;101267.84;;;22.93;56.65
70521;BME280;58442;52.716;23.560;2023-06-26T07:17:35;101266.95;;;23.00;56.35
70521;BME280;58442;52.716;23.560;2023-06-26T07:19:38;101262.42;;;23.10;56.25
70521;BME280;58442;52.716;23.560;2023-06-26T07:21:46;101261.76;;;23.26;56.02
70521;BME280;58442;52.716;23.560;2023-06-26T07:23:48;101263.90;;;23.41;55.68
70521;BME280;58442;52.716;23.560;2023-06-26T07:25:49;101260.01;;;23.59;55.33
70521;BME280;58442;52.716;23.560;2023-06-26T07:27:50;101258.42;;;23.61;55.17
70521;BME280;58442;52.716;23.560;2023-06-26T07:30:01;101258.30;;;23.68;54.95
70521;BME280;58442;52.716;23.560;2023-06-26T07:32:03;101260.98;;;23.72;54.85
70521;BME280;58442;52.716;23.560;2023-06-26T07:34:04;101256.16;;;23.76;54.61
70521;BME280;58442;52.716;23.560;2023-06-26T07:36:06;101256.43;;;23.62;54.71
70521;BME280;58442;52.716;23.560;2023-06-26T07:38:16;101249.29;;;23.37;55.08
70521;BME280;58442;52.716;23.560;2023-06-26T07:40:17;101257.07;;;23.23;55.26
70521;BME280;58442;52.716;23.560;2023-06-26T07:42:18;101251.72;;;23.35;54.96
70521;BME280;58442;52.716;23.560;2023-06-26T07:44:20;101252.59;;;23.52;54.64
70521;BME280;58442;52.716;23.560;2023-06-26T07:46:30;101249.53;;;23.70;54.32
70521;BME280;58442;52.716;23.560;2023-06-26T07:48:32;101243.76;;;23.81;54.05
70521;BME280;58442;52.716;23.560;2023-06-26T07:50:33;101246.84;;;23.86;53.86
70521;BME280;58442;52.716;23.560;2023-06-26T07:52:34;101244.63;;;23.78;54.20
70521;BME280;58442;52.716;23.560;2023-06-26T07:54:45;101239.13;;;23.74;54.36
70521;BME280;58442;52.716;23.560;2023-06-26T07:56:53;101238.36;;;23.93;53.94
70521;BME280;58442;52.716;23.560;2023-06-26T07:58:55;101242.06;;;24.07;53.59
70521;BME280;58442;52.716;23.560;2023-06-26T08:00:58;101238.30;;;24.17;53.41
70521;BME280;58442;52.716;23.560;2023-06-26T08:02:59;101244.39;;;24.28;53.25
70521;BME280;58442;52.716;23.560;2023-06-26T08:05:01;101240.98;;;24.40;53.08
70521;BME280;58442;52.716;23.560;2023-06-26T08:07:02;101233.21;;;24.51;52.92
70521;BME280;58442;52.716;23.560;2023-06-26T08:09:04;101229.84;;;24.60;52.77
70521;BME280;58442;52.716;23.560;2023-06-26T08:11:14;101229.60;;;24.71;52.62
70521;BME280;58442;52.716;23.560;2023-06-26T08:13:16;101232.55;;;24.80;52.13
70521;BME280;58442;52.716;23.560;2023-06-26T08:15:17;101228.55;;;24.81;51.78
70521;BME280;58442;52.716;23.560;2023-06-26T08:17:18;101224.55;;;24.82;51.77
70521;BME280;58442;52.716;23.560;2023-06-26T08:19:29;101233.09;;;24.91;51.54
70521;BME280;58442;52.716;23.560;2023-06-26T08:21:30;101236.89;;;24.97;51.41
70521;BME280;58442;52.716;23.560;2023-06-26T08:23:32;101230.66;;;25.09;51.25
70521;BME280;58442;52.716;23.560;2023-06-26T08:25:33;101227.63;;;25.20;51.00
70521;BME280;58442;52.716;23.560;2023-06-26T08:27:43;101226.55;;;25.30;50.82
70521;BME280;58442;52.716;23.560;2023-06-26T08:29:45;101221.58;;;25.38;50.58
70521;BME280;58442;52.716;23.560;2023-06-26T08:31:46;101222.53;;;25.48;50.26
70521;BME280;58442;52.716;23.560;2023-06-26T08:33:47;101217.89;;;25.57;50.13
70521;BME280;58442;52.716;23.560;2023-06-26T08:35:58;101229.98;;;25.67;49.97
70521;BME280;58442;52.716;23.560;2023-06-26T08:37:59;101224.23;;;25.74;49.61
70521;BME280;58442;52.716;23.560;2023-06-26T08:40:01;101226.38;;;25.83;49.41
70521;BME280;58442;52.716;23.560;2023-06-26T08:42:02;101224.17;;;25.90;49.24
70521;BME280;58442;52.716;23.560;2023-06-26T08:44:13;101227.08;;;26.00;49.10
70521;BME280;58442;52.716;23.560;2023-06-26T08:46:14;101224.00;;;26.10;48.83
70521;BME280;58442;52.716;23.560;2023-06-26T08:48:16;101225.67;;;26.21;48.68
70521;BME280;58442;52.716;23.560;2023-06-26T08:50:19;101229.71;;;26.32;48.45
70521;BME280;58442;52.716;23.560;2023-06-26T08:52:34;101222.27;;;26.42;48.15
70521;BME280;58442;52.716;23.560;2023-06-26T08:54:45;101227.98;;;26.51;47.72
70521;BME280;58442;52.716;23.560;2023-06-26T08:56:49;101227.30;;;26.60;47.38
70521;BME280;58442;52.716;23.560;2023-06-26T08:58:52;101223.06;;;26.68;47.15
70521;BME280;58442;52.716;23.560;2023-06-26T09:00:53;101225.52;;;26.79;46.99
70521;BME280;58442;52.716;23.560;2023-06-26T09:02:57;101222.50;;;26.86;46.76
70521;BME280;58442;52.716;23.560;2023-06-26T09:04:59;101214.68;;;26.93;46.58
70521;BME280;58442;52.716;23.560;2023-06-26T09:07:01;101218.91;;;26.98;46.44
70521;BME280;58442;52.716;23.560;2023-06-26T09:09:07;101219.91;;;27.04;46.20
70521;BME280;58442;52.716;23.560;2023-06-26T09:11:08;101219.70;;;27.11;45.82
70521;BME280;58442;52.716;23.560;2023-06-26T09:13:10;101220.66;;;27.17;45.66
70521;BME280;58442;52.716;23.560;2023-06-26T09:15:14;101214.05;;;27.24;45.35
70521;BME280;58442;52.716;23.560;2023-06-26T09:17:30;101213.49;;;27.29;45.15
70521;BME280;58442;52.716;23.560;2023-06-26T09:19:45;101207.55;;;27.40;45.05
70521;BME280;58442;52.716;23.560;2023-06-26T09:21:50;101204.98;;;27.45;45.06
70521;BME280;58442;52.716;23.560;2023-06-26T09:23:53;101209.52;;;27.52;44.89
70521;BME280;58442;52.716;23.560;2023-06-26T09:25:55;101204.58;;;27.56;44.88
70521;BME280;58442;52.716;23.560;2023-06-26T09:27:57;101203.54;;;27.63;44.86
70521;BME280;58442;52.716;23.560;2023-06-26T09:29:58;101203.42;;;27.66;44.77
70521;BME280;58442;52.716;23.560;2023-06-26T09:32:00;101208.44;;;27.71;44.72
70521;BME280;58442;52.716;23.560;2023-06-26T09:34:01;101202.58;;;27.78;44.59
70521;BME280;58442;52.716;23.560;2023-06-26T09:36:21;101193.30;;;27.82;44.50
70521;BME280;58442;52.716;23.560;2023-06-26T09:38:34;101201.89;;;27.87;44.41
70521;BME280;58442;52.716;23.560;2023-06-26T09:40:36;101198.94;;;27.91;44.10
70521;BME280;58442;52.716;23.560;2023-06-26T09:42:39;101196.47;;;27.93;43.92
70521;BME280;58442;52.716;23.560;2023-06-26T09:44:44;101194.33;;;27.97;43.96
70521;BME280;58442;52.716;23.560;2023-06-26T09:46:47;101193.40;;;28.00;43.91
70521;BME280;58442;52.716;23.560;2023-06-26T09:48:49;101198.88;;;28.03;43.77
70521;BME280;58442;52.716;23.560;2023-06-26T09:50:51;101194.71;;;28.08;43.63
70521;BME280;58442;52.716;23.560;2023-06-26T09:52:52;101200.93;;;28.12;43.49
70521;BME280;58442;52.716;23.560;2023-06-26T09:55:08;101191.17;;;28.17;43.44
70521;BME280;58442;52.716;23.560;2023-06-26T09:57:17;101190.59;;;28.22;43.15
70521;BME280;58442;52.716;23.560;2023-06-26T09:59:20;101189.97;;;28.27;43.03
70521;BME280;58442;52.716;23.560;2023-06-26T10:01:21;101185.97;;;28.28;42.86
70521;BME280;58442;52.716;23.560;2023-06-26T10:03:23;101185.29;;;27.93;43.50
70521;BME280;58442;52.716;23.560;2023-06-26T10:05:25;101188.03;;;27.84;43.48
70521;BME280;58442;52.716;23.560;2023-06-26T10:07:27;101181.55;;;27.87;43.36
70521;BME280;58442;52.716;23.560;2023-06-26T10:09:29;101178.92;;;27.92;43.20
70521;BME280;58442;52.716;23.560;2023-06-26T10:13:59;101178.25;;;28.10;42.90
70521;BME280;58442;52.716;23.560;2023-06-26T10:16:02;101163.88;;;28.21;42.68
70521;BME280;58442;52.716;23.560;2023-06-26T10:18:04;101165.93;;;28.29;42.64
70521;BME280;58442;52.716;23.560;2023-06-26T10:20:08;101170.33;;;28.40;42.61
70521;BME280;58442;52.716;23.560;2023-06-26T10:22:17;101156.84;;;28.47;42.55
70521;BME280;58442;52.716;23.560;2023-06-26T10:24:23;101151.88;;;28.42;42.63
70521;BME280;58442;52.716;23.560;2023-06-26T10:26:26;101163.85;;;28.52;42.54
70521;BME280;58442;52.716;23.560;2023-06-26T10:28:31;101162.32;;;28.60;42.41
70521;BME280;58442;52.716;23.560;2023-06-26T10:30:36;101162.37;;;28.69;42.31
70521;BME280;58442;52.716;23.560;2023-06-26T10:32:39;101151.48;;;28.71;42.27
70521;BME280;58442;52.716;23.560;2023-06-26T10:34:41;101142.62;;;28.82;42.16
70521;BME280;58442;52.716;23.560;2023-06-26T10:36:43;101140.91;;;28.75;42.11
70521;BME280;58442;52.716;23.560;2023-06-26T10:38:52;101139.68;;;28.76;42.17
70521;BME280;58442;52.716;23.560;2023-06-26T10:40:54;101139.68;;;28.85;41.99
70521;BME280;58442;52.716;23.560;2023-06-26T10:45:16;101129.74;;;28.84;41.88
70521;BME280;58442;52.716;23.560;2023-06-26T10:49:32;101135.58;;;28.50;42.28